sensor_id;sensor_type;location;lat;lon;timestamp;P1;durP1;ratioP1;P2;durP2;ratioP2
53927;SDS011;39837;47.630;18.822;2023-12-04T00:02:37;31.40;;;19.83;;
53927;SDS011;39837;47.630;18.822;2023-12-04T00:05:22;33.67;;;22.45;;
53927;SDS011;39837;47.630;18.822;2023-12-04T00:08:06;32.35;;;20.38;;
53927;SDS011;39837;47.630;18.822;2023-12-04T00:10:50;36.42;;;21.55;;
53927;SDS011;39837;47.630;18.822;2023-12-04T00:13:35;32.70;;;21.57;;
53927;SDS011;39837;47.630;18.822;2023-12-04T00:16:19;31.88;;;22.33;;
53927;SDS011;39837;47.630;18.822;2023-12-04T00:19:03;32.63;;;22.80;;
53927;SDS011;39837;47.630;18.822;2023-12-04T00:21:47;37.38;;;23.70;;
53927;SDS011;39837;47.630;18.822;2023-12-04T00:24:31;34.30;;;22.63;;
53927;SDS011;39837;47.630;18.822;2023-12-04T00:27:15;36.20;;;22.73;;
53927;SDS011;39837;47.630;18.822;2023-12-04T00:29:59;38.88;;;22.40;;
53927;SDS011;39837;47.630;18.822;2023-12-04T00:32:43;42.60;;;29.63;;
53927;SDS011;39837;47.630;18.822;2023-12-04T00:35:27;45.25;;;30.17;;
53927;SDS011;39837;47.630;18.822;2023-12-04T00:38:11;29.85;;;21.20;;
53927;SDS011;39837;47.630;18.822;2023-12-04T00:40:55;32.42;;;21.45;;
53927;SDS011;39837;47.630;18.822;2023-12-04T00:43:39;32.63;;;21.67;;
53927;SDS011;39837;47.630;18.822;2023-12-04T00:46:22;29.40;;;20.17;;
53927;SDS011;39837;47.630;18.822;2023-12-04T00:49:06;32.85;;;22.08;;
53927;SDS011;39837;47.630;18.822;2023-12-04T00:51:50;33.60;;;20.55;;
53927;SDS011;39837;47.630;18.822;2023-12-04T00:54:34;35.10;;;20.75;;
53927;SDS011;39837;47.630;18.822;2023-12-04T00:57:18;30.25;;;21.08;;
53927;SDS011;39837;47.630;18.822;2023-12-04T01:00:03;30.80;;;20.35;;
53927;SDS011;39837;47.630;18.822;2023-12-04T01:02:47;34.28;;;20.35;;
53927;SDS011;39837;47.630;18.822;2023-12-04T01:05:31;32.17;;;20.98;;
53927;SDS011;39837;47.630;18.822;2023-12-04T01:08:15;36.50;;;19.42;;
53927;SDS011;39837;47.630;18.822;2023-12-04T01:10:59;34.13;;;21.30;;
53927;SDS011;39837;47.630;18.822;2023-12-04T01:13:43;31.35;;;21.13;;
53927;SDS011;39837;47.630;18.822;2023-12-04T01:16:27;34.83;;;21.17;;
53927;SDS011;39837;47.630;18.822;2023-12-04T01:19:12;32.22;;;20.45;;
53927;SDS011;39837;47.630;18.822;2023-12-04T01:21:57;37.50;;;22.77;;
53927;SDS011;39837;47.630;18.822;2023-12-04T01:24:40;36.28;;;20.95;;
53927;SDS011;39837;47.630;18.822;2023-12-04T01:27:25;35.63;;;20.55;;
53927;SDS011;39837;47.630;18.822;2023-12-04T01:30:09;31.25;;;21.58;;
53927;SDS011;39837;47.630;18.822;2023-12-04T01:32:54;32.70;;;20.30;;
53927;SDS011;39837;47.630;18.822;2023-12-04T01:35:38;35.55;;;20.17;;
53927;SDS011;39837;47.630;18.822;2023-12-04T01:38:22;29.38;;;19.95;;
53927;SDS011;39837;47.630;18.822;2023-12-04T01:41:06;33.90;;;20.98;;
53927;SDS011;39837;47.630;18.822;2023-12-04T01:43:50;32.08;;;20.02;;
53927;SDS011;39837;47.630;18.822;2023-12-04T01:46:33;29.83;;;20.83;;
53927;SDS011;39837;47.630;18.822;2023-12-04T01:49:17;32.70;;;20.90;;
53927;SDS011;39837;47.630;18.822;2023-12-04T01:52:01;35.58;;;20.98;;
53927;SDS011;39837;47.630;18.822;2023-12-04T01:54:46;32.80;;;20.77;;
53927;SDS011;39837;47.630;18.822;2023-12-04T01:57:30;31.10;;;20.10;;
53927;SDS011;39837;47.630;18.822;2023-12-04T02:00:14;37.50;;;21.23;;
53927;SDS011;39837;47.630;18.822;2023-12-04T02:02:58;37.17;;;20.63;;
53927;SDS011;39837;47.630;18.822;2023-12-04T02:05:47;31.73;;;20.20;;
53927;SDS011;39837;47.630;18.822;2023-12-04T02:08:31;34.72;;;20.73;;
53927;SDS011;39837;47.630;18.822;2023-12-04T02:11:15;33.35;;;20.52;;
53927;SDS011;39837;47.630;18.822;2023-12-04T02:13:59;32.72;;;20.45;;
53927;SDS011;39837;47.630;18.822;2023-12-04T02:16:43;31.73;;;19.13;;
53927;SDS011;39837;47.630;18.822;2023-12-04T02:19:28;28.05;;;18.90;;
53927;SDS011;39837;47.630;18.822;2023-12-04T02:22:12;30.20;;;19.40;;
53927;SDS011;39837;47.630;18.822;2023-12-04T02:24:56;28.48;;;18.58;;
53927;SDS011;39837;47.630;18.822;2023-12-04T02:27:44;26.88;;;18.77;;
53927;SDS011;39837;47.630;18.822;2023-12-04T02:30:32;29.98;;;19.17;;
53927;SDS011;39837;47.630;18.822;2023-12-04T02:33:20;31.15;;;19.23;;
53927;SDS011;39837;47.630;18.822;2023-12-04T02:36:07;30.67;;;18.70;;
53927;SDS011;39837;47.630;18.822;2023-12-04T02:38:52;31.00;;;19.50;;
53927;SDS011;39837;47.630;18.822;2023-12-04T02:41:37;29.65;;;18.75;;
53927;SDS011;39837;47.630;18.822;2023-12-04T02:44:21;35.20;;;20.05;;
53927;SDS011;39837;47.630;18.822;2023-12-04T02:47:06;34.95;;;21.42;;
53927;SDS011;39837;47.630;18.822;2023-12-04T02:49:49;33.35;;;19.85;;
53927;SDS011;39837;47.630;18.822;2023-12-04T02:52:33;29.95;;;19.35;;
53927;SDS011;39837;47.630;18.822;2023-12-04T02:55:17;39.35;;;20.92;;
53927;SDS011;39837;47.630;18.822;2023-12-04T02:58:01;30.35;;;19.20;;
53927;SDS011;39837;47.630;18.822;2023-12-04T03:00:46;35.60;;;20.80;;
53927;SDS011;39837;47.630;18.822;2023-12-04T03:03:30;29.23;;;18.85;;
53927;SDS011;39837;47.630;18.822;2023-12-04T03:06:14;35.65;;;19.73;;
53927;SDS011;39837;47.630;18.822;2023-12-04T03:08:59;30.75;;;18.95;;
53927;SDS011;39837;47.630;18.822;2023-12-04T03:11:43;32.00;;;20.63;;
53927;SDS011;39837;47.630;18.822;2023-12-04T03:14:27;32.17;;;19.40;;
53927;SDS011;39837;47.630;18.822;2023-12-04T03:17:11;28.33;;;19.10;;
53927;SDS011;39837;47.630;18.822;2023-12-04T03:19:55;30.30;;;18.88;;
53927;SDS011;39837;47.630;18.822;2023-12-04T03:22:39;27.80;;;19.02;;
53927;SDS011;39837;47.630;18.822;2023-12-04T03:25:23;34.25;;;19.73;;
53927;SDS011;39837;47.630;18.822;2023-12-04T03:28:07;30.27;;;18.42;;
53927;SDS011;39837;47.630;18.822;2023-12-04T03:30:51;29.90;;;18.10;;
53927;SDS011;39837;47.630;18.822;2023-12-04T03:33:35;32.85;;;19.35;;
53927;SDS011;39837;47.630;18.822;2023-12-04T03:36:19;38.47;;;19.10;;
53927;SDS011;39837;47.630;18.822;2023-12-04T03:39:03;31.08;;;18.48;;
53927;SDS011;39837;47.630;18.822;2023-12-04T03:41:47;40.95;;;18.85;;
53927;SDS011;39837;47.630;18.822;2023-12-04T03:44:31;29.75;;;18.88;;
53927;SDS011;39837;47.630;18.822;2023-12-04T03:47:15;30.25;;;17.85;;
53927;SDS011;39837;47.630;18.822;2023-12-04T03:49:59;27.65;;;18.73;;
53927;SDS011;39837;47.630;18.822;2023-12-04T03:52:43;28.25;;;19.17;;
53927;SDS011;39837;47.630;18.822;2023-12-04T03:55:27;29.98;;;18.77;;
53927;SDS011;39837;47.630;18.822;2023-12-04T03:58:11;30.25;;;17.88;;
53927;SDS011;39837;47.630;18.822;2023-12-04T04:00:55;36.42;;;18.00;;
53927;SDS011;39837;47.630;18.822;2023-12-04T04:03:39;30.77;;;18.25;;
53927;SDS011;39837;47.630;18.822;2023-12-04T04:06:23;25.98;;;16.88;;
53927;SDS011;39837;47.630;18.822;2023-12-04T04:09:07;28.73;;;17.83;;
53927;SDS011;39837;47.630;18.822;2023-12-04T04:11:51;27.10;;;16.58;;
53927;SDS011;39837;47.630;18.822;2023-12-04T04:14:35;24.75;;;16.85;;
53927;SDS011;39837;47.630;18.822;2023-12-04T04:17:19;26.85;;;16.48;;
53927;SDS011;39837;47.630;18.822;2023-12-04T04:20:03;23.02;;;15.43;;
53927;SDS011;39837;47.630;18.822;2023-12-04T04:22:48;24.65;;;16.45;;
53927;SDS011;39837;47.630;18.822;2023-12-04T04:25:32;26.13;;;16.55;;
53927;SDS011;39837;47.630;18.822;2023-12-04T04:28:16;25.52;;;16.65;;
53927;SDS011;39837;47.630;18.822;2023-12-04T04:31:00;26.17;;;16.23;;
53927;SDS011;39837;47.630;18.822;2023-12-04T04:33:44;24.55;;;15.30;;
53927;SDS011;39837;47.630;18.822;2023-12-04T04:36:28;27.17;;;16.63;;
53927;SDS011;39837;47.630;18.822;2023-12-04T04:39:12;29.42;;;15.90;;
53927;SDS011;39837;47.630;18.822;2023-12-04T04:41:56;25.85;;;14.93;;
53927;SDS011;39837;47.630;18.822;2023-12-04T04:44:40;32.55;;;16.08;;
53927;SDS011;39837;47.630;18.822;2023-12-04T04:47:24;24.13;;;15.60;;
53927;SDS011;39837;47.630;18.822;2023-12-04T04:50:08;26.63;;;15.15;;
53927;SDS011;39837;47.630;18.822;2023-12-04T04:52:53;25.88;;;15.25;;
53927;SDS011;39837;47.630;18.822;2023-12-04T04:55:37;26.75;;;15.98;;
53927;SDS011;39837;47.630;18.822;2023-12-04T04:58:21;24.85;;;15.57;;
53927;SDS011;39837;47.630;18.822;2023-12-04T05:01:05;24.92;;;16.42;;
53927;SDS011;39837;47.630;18.822;2023-12-04T05:03:49;26.20;;;15.95;;
53927;SDS011;39837;47.630;18.822;2023-12-04T05:06:33;23.73;;;16.05;;
53927;SDS011;39837;47.630;18.822;2023-12-04T05:09:17;28.85;;;17.42;;
53927;SDS011;39837;47.630;18.822;2023-12-04T05:12:01;25.38;;;16.73;;
53927;SDS011;39837;47.630;18.822;2023-12-04T05:14:45;26.85;;;16.50;;
53927;SDS011;39837;47.630;18.822;2023-12-04T05:17:29;23.70;;;15.48;;
53927;SDS011;39837;47.630;18.822;2023-12-04T05:20:13;23.58;;;15.77;;
53927;SDS011;39837;47.630;18.822;2023-12-04T05:22:57;21.70;;;15.80;;
53927;SDS011;39837;47.630;18.822;2023-12-04T05:25:41;23.77;;;14.73;;
53927;SDS011;39837;47.630;18.822;2023-12-04T05:28:25;26.35;;;16.63;;
53927;SDS011;39837;47.630;18.822;2023-12-04T05:31:09;27.80;;;15.88;;
53927;SDS011;39837;47.630;18.822;2023-12-04T05:33:53;32.45;;;16.60;;
53927;SDS011;39837;47.630;18.822;2023-12-04T05:36:37;23.55;;;16.60;;
53927;SDS011;39837;47.630;18.822;2023-12-04T05:39:21;28.55;;;16.58;;
53927;SDS011;39837;47.630;18.822;2023-12-04T05:42:05;30.17;;;15.38;;
53927;SDS011;39837;47.630;18.822;2023-12-04T05:44:49;22.40;;;13.02;;
53927;SDS011;39837;47.630;18.822;2023-12-04T05:47:34;17.77;;;12.90;;
53927;SDS011;39837;47.630;18.822;2023-12-04T05:50:18;18.83;;;12.15;;
53927;SDS011;39837;47.630;18.822;2023-12-04T05:53:03;18.90;;;10.98;;
53927;SDS011;39837;47.630;18.822;2023-12-04T05:55:47;15.40;;;11.52;;
53927;SDS011;39837;47.630;18.822;2023-12-04T05:58:31;14.95;;;10.77;;
53927;SDS011;39837;47.630;18.822;2023-12-04T06:01:15;14.75;;;10.73;;
53927;SDS011;39837;47.630;18.822;2023-12-04T06:03:58;16.08;;;11.15;;
53927;SDS011;39837;47.630;18.822;2023-12-04T06:06:42;17.40;;;10.48;;
53927;SDS011;39837;47.630;18.822;2023-12-04T06:09:27;16.23;;;10.73;;
53927;SDS011;39837;47.630;18.822;2023-12-04T06:12:10;16.13;;;10.52;;
53927;SDS011;39837;47.630;18.822;2023-12-04T06:14:54;19.73;;;10.48;;
53927;SDS011;39837;47.630;18.822;2023-12-04T06:17:38;18.80;;;12.35;;
53927;SDS011;39837;47.630;18.822;2023-12-04T06:20:23;18.67;;;11.50;;
53927;SDS011;39837;47.630;18.822;2023-12-04T06:23:07;23.70;;;12.43;;
53927;SDS011;39837;47.630;18.822;2023-12-04T06:25:51;30.67;;;12.00;;
53927;SDS011;39837;47.630;18.822;2023-12-04T06:28:36;17.42;;;10.48;;
53927;SDS011;39837;47.630;18.822;2023-12-04T06:31:20;12.32;;;9.10;;
53927;SDS011;39837;47.630;18.822;2023-12-04T06:34:04;12.60;;;9.27;;
53927;SDS011;39837;47.630;18.822;2023-12-04T06:36:49;12.27;;;9.00;;
53927;SDS011;39837;47.630;18.822;2023-12-04T06:39:33;13.10;;;9.40;;
53927;SDS011;39837;47.630;18.822;2023-12-04T06:42:18;12.88;;;9.85;;
53927;SDS011;39837;47.630;18.822;2023-12-04T06:45:03;13.50;;;9.50;;
53927;SDS011;39837;47.630;18.822;2023-12-04T06:47:47;20.00;;;11.75;;
53927;SDS011;39837;47.630;18.822;2023-12-04T06:50:34;15.18;;;10.77;;
53927;SDS011;39837;47.630;18.822;2023-12-04T06:53:18;13.60;;;10.32;;
53927;SDS011;39837;47.630;18.822;2023-12-04T06:56:02;23.75;;;15.13;;
53927;SDS011;39837;47.630;18.822;2023-12-04T06:58:47;28.15;;;18.92;;
53927;SDS011;39837;47.630;18.822;2023-12-04T07:01:31;21.15;;;13.93;;
53927;SDS011;39837;47.630;18.822;2023-12-04T07:04:15;28.38;;;14.80;;
53927;SDS011;39837;47.630;18.822;2023-12-04T07:07:04;35.85;;;20.55;;
53927;SDS011;39837;47.630;18.822;2023-12-04T07:09:49;38.00;;;21.73;;
53927;SDS011;39837;47.630;18.822;2023-12-04T07:12:33;45.97;;;17.00;;
53927;SDS011;39837;47.630;18.822;2023-12-04T07:15:17;67.03;;;27.90;;
53927;SDS011;39837;47.630;18.822;2023-12-04T07:18:01;63.25;;;23.92;;
53927;SDS011;39837;47.630;18.822;2023-12-04T07:20:45;61.70;;;22.92;;
53927;SDS011;39837;47.630;18.822;2023-12-04T07:23:29;52.13;;;24.77;;
53927;SDS011;39837;47.630;18.822;2023-12-04T07:26:13;50.75;;;27.35;;
53927;SDS011;39837;47.630;18.822;2023-12-04T07:28:57;57.08;;;26.95;;
53927;SDS011;39837;47.630;18.822;2023-12-04T07:31:42;66.97;;;30.33;;
53927;SDS011;39837;47.630;18.822;2023-12-04T07:34:29;50.30;;;26.50;;
53927;SDS011;39837;47.630;18.822;2023-12-04T07:37:13;48.72;;;26.13;;
53927;SDS011;39837;47.630;18.822;2023-12-04T07:39:57;35.03;;;23.88;;
53927;SDS011;39837;47.630;18.822;2023-12-04T07:42:42;34.60;;;20.23;;
53927;SDS011;39837;47.630;18.822;2023-12-04T07:45:26;27.90;;;18.88;;
53927;SDS011;39837;47.630;18.822;2023-12-04T07:48:11;25.27;;;16.45;;
53927;SDS011;39837;47.630;18.822;2023-12-04T07:50:55;30.48;;;14.70;;
53927;SDS011;39837;47.630;18.822;2023-12-04T07:53:39;21.30;;;14.90;;
53927;SDS011;39837;47.630;18.822;2023-12-04T07:56:23;30.55;;;15.85;;
53927;SDS011;39837;47.630;18.822;2023-12-04T07:59:07;24.33;;;14.55;;
53927;SDS011;39837;47.630;18.822;2023-12-04T08:01:51;22.50;;;16.27;;
53927;SDS011;39837;47.630;18.822;2023-12-04T08:04:36;22.98;;;16.45;;
53927;SDS011;39837;47.630;18.822;2023-12-04T08:07:20;24.13;;;16.23;;
53927;SDS011;39837;47.630;18.822;2023-12-04T08:10:05;28.83;;;18.35;;
53927;SDS011;39837;47.630;18.822;2023-12-04T08:12:50;23.17;;;15.40;;
53927;SDS011;39837;47.630;18.822;2023-12-04T08:15:34;29.10;;;18.85;;
53927;SDS011;39837;47.630;18.822;2023-12-04T08:18:18;34.97;;;22.23;;
53927;SDS011;39837;47.630;18.822;2023-12-04T08:21:02;35.28;;;23.77;;
53927;SDS011;39837;47.630;18.822;2023-12-04T08:23:47;44.25;;;25.83;;
53927;SDS011;39837;47.630;18.822;2023-12-04T08:26:31;35.47;;;24.08;;
53927;SDS011;39837;47.630;18.822;2023-12-04T08:29:15;42.28;;;26.42;;
53927;SDS011;39837;47.630;18.822;2023-12-04T08:31:59;55.03;;;31.08;;
53927;SDS011;39837;47.630;18.822;2023-12-04T08:34:43;53.97;;;33.47;;
53927;SDS011;39837;47.630;18.822;2023-12-04T08:37:27;49.97;;;31.25;;
53927;SDS011;39837;47.630;18.822;2023-12-04T08:40:11;47.25;;;26.88;;
53927;SDS011;39837;47.630;18.822;2023-12-04T08:42:55;46.40;;;26.55;;
53927;SDS011;39837;47.630;18.822;2023-12-04T08:45:39;38.25;;;21.95;;
53927;SDS011;39837;47.630;18.822;2023-12-04T08:48:23;24.17;;;16.48;;
53927;SDS011;39837;47.630;18.822;2023-12-04T08:51:07;21.42;;;14.38;;
53927;SDS011;39837;47.630;18.822;2023-12-04T08:53:55;13.35;;;10.55;;
53927;SDS011;39837;47.630;18.822;2023-12-04T08:56:39;11.70;;;9.93;;
53927;SDS011;39837;47.630;18.822;2023-12-04T08:59:23;14.05;;;10.02;;
53927;SDS011;39837;47.630;18.822;2023-12-04T09:02:07;15.02;;;10.93;;
53927;SDS011;39837;47.630;18.822;2023-12-04T09:04:51;14.93;;;10.05;;
53927;SDS011;39837;47.630;18.822;2023-12-04T09:07:35;21.02;;;11.65;;
53927;SDS011;39837;47.630;18.822;2023-12-04T09:10:20;16.20;;;11.38;;
53927;SDS011;39837;47.630;18.822;2023-12-04T09:13:04;12.35;;;9.73;;
53927;SDS011;39837;47.630;18.822;2023-12-04T09:15:48;13.30;;;9.32;;
53927;SDS011;39837;47.630;18.822;2023-12-04T09:18:32;16.05;;;10.55;;
53927;SDS011;39837;47.630;18.822;2023-12-04T09:21:16;18.08;;;10.35;;
53927;SDS011;39837;47.630;18.822;2023-12-04T09:24:00;12.57;;;9.73;;
53927;SDS011;39837;47.630;18.822;2023-12-04T09:26:44;14.90;;;8.65;;
53927;SDS011;39837;47.630;18.822;2023-12-04T09:29:28;11.02;;;9.18;;
53927;SDS011;39837;47.630;18.822;2023-12-04T09:32:12;10.95;;;9.32;;
53927;SDS011;39837;47.630;18.822;2023-12-04T09:34:56;21.30;;;10.65;;
53927;SDS011;39837;47.630;18.822;2023-12-04T09:37:40;12.98;;;9.27;;
53927;SDS011;39837;47.630;18.822;2023-12-04T09:40:25;10.40;;;8.18;;
53927;SDS011;39837;47.630;18.822;2023-12-04T09:43:09;11.23;;;8.45;;
53927;SDS011;39837;47.630;18.822;2023-12-04T09:45:53;11.55;;;7.95;;
53927;SDS011;39837;47.630;18.822;2023-12-04T09:48:37;13.60;;;9.27;;
53927;SDS011;39837;47.630;18.822;2023-12-04T09:51:22;11.73;;;8.73;;
53927;SDS011;39837;47.630;18.822;2023-12-04T09:54:07;12.23;;;8.35;;
53927;SDS011;39837;47.630;18.822;2023-12-04T09:56:52;12.20;;;8.32;;
53927;SDS011;39837;47.630;18.822;2023-12-04T09:59:36;10.45;;;8.23;;
53927;SDS011;39837;47.630;18.822;2023-12-04T10:02:20;10.43;;;8.07;;
53927;SDS011;39837;47.630;18.822;2023-12-04T10:05:06;11.15;;;8.13;;
53927;SDS011;39837;47.630;18.822;2023-12-04T10:07:50;8.85;;;7.53;;
53927;SDS011;39837;47.630;18.822;2023-12-04T10:10:34;11.57;;;8.75;;
53927;SDS011;39837;47.630;18.822;2023-12-04T10:13:18;8.57;;;7.68;;
53927;SDS011;39837;47.630;18.822;2023-12-04T10:16:02;16.30;;;7.53;;
53927;SDS011;39837;47.630;18.822;2023-12-04T10:18:46;8.90;;;6.28;;
53927;SDS011;39837;47.630;18.822;2023-12-04T10:21:34;9.50;;;6.45;;
53927;SDS011;39837;47.630;18.822;2023-12-04T10:24:31;7.60;;;6.38;;
53927;SDS011;39837;47.630;18.822;2023-12-04T10:27:17;8.98;;;7.32;;
53927;SDS011;39837;47.630;18.822;2023-12-04T10:30:01;7.85;;;6.78;;
53927;SDS011;39837;47.630;18.822;2023-12-04T10:32:49;6.75;;;6.07;;
53927;SDS011;39837;47.630;18.822;2023-12-04T10:35:36;11.38;;;6.53;;
53927;SDS011;39837;47.630;18.822;2023-12-04T10:38:20;6.78;;;6.13;;
53927;SDS011;39837;47.630;18.822;2023-12-04T10:41:14;9.48;;;6.63;;
53927;SDS011;39837;47.630;18.822;2023-12-04T10:43:58;7.28;;;6.47;;
53927;SDS011;39837;47.630;18.822;2023-12-04T10:46:44;9.45;;;6.82;;
53927;SDS011;39837;47.630;18.822;2023-12-04T10:49:31;8.90;;;7.22;;
53927;SDS011;39837;47.630;18.822;2023-12-04T10:52:17;9.38;;;6.85;;
53927;SDS011;39837;47.630;18.822;2023-12-04T10:55:05;8.25;;;6.88;;
53927;SDS011;39837;47.630;18.822;2023-12-04T10:57:51;10.70;;;7.28;;
53927;SDS011;39837;47.630;18.822;2023-12-04T11:00:54;9.23;;;7.63;;
53927;SDS011;39837;47.630;18.822;2023-12-04T11:03:51;10.27;;;7.07;;
53927;SDS011;39837;47.630;18.822;2023-12-04T11:06:38;9.82;;;7.80;;
53927;SDS011;39837;47.630;18.822;2023-12-04T11:09:24;11.35;;;8.48;;
53927;SDS011;39837;47.630;18.822;2023-12-04T11:12:11;15.73;;;8.90;;
53927;SDS011;39837;47.630;18.822;2023-12-04T11:14:59;9.95;;;8.65;;
53927;SDS011;39837;47.630;18.822;2023-12-04T11:17:47;11.75;;;8.38;;
53927;SDS011;39837;47.630;18.822;2023-12-04T11:20:33;10.93;;;8.88;;
53927;SDS011;39837;47.630;18.822;2023-12-04T11:23:23;14.90;;;9.82;;
53927;SDS011;39837;47.630;18.822;2023-12-04T11:26:08;14.52;;;9.13;;
53927;SDS011;39837;47.630;18.822;2023-12-04T11:28:53;14.75;;;9.43;;
53927;SDS011;39837;47.630;18.822;2023-12-04T11:31:37;21.10;;;9.43;;
53927;SDS011;39837;47.630;18.822;2023-12-04T11:34:22;12.48;;;9.18;;
53927;SDS011;39837;47.630;18.822;2023-12-04T11:37:06;14.18;;;10.02;;
53927;SDS011;39837;47.630;18.822;2023-12-04T11:39:50;12.40;;;10.25;;
53927;SDS011;39837;47.630;18.822;2023-12-04T11:42:35;12.60;;;8.98;;
53927;SDS011;39837;47.630;18.822;2023-12-04T11:45:19;13.40;;;10.25;;
53927;SDS011;39837;47.630;18.822;2023-12-04T11:48:04;13.40;;;10.57;;
53927;SDS011;39837;47.630;18.822;2023-12-04T11:50:48;16.30;;;10.35;;
53927;SDS011;39837;47.630;18.822;2023-12-04T11:53:37;14.93;;;10.50;;
53927;SDS011;39837;47.630;18.822;2023-12-04T11:56:23;12.75;;;9.88;;
53927;SDS011;39837;47.630;18.822;2023-12-04T11:59:07;16.35;;;10.30;;
53927;SDS011;39837;47.630;18.822;2023-12-04T12:01:54;12.60;;;9.13;;
53927;SDS011;39837;47.630;18.822;2023-12-04T12:04:39;13.80;;;9.93;;
53927;SDS011;39837;47.630;18.822;2023-12-04T12:07:24;12.43;;;9.23;;
53927;SDS011;39837;47.630;18.822;2023-12-04T12:10:08;15.10;;;10.40;;
53927;SDS011;39837;47.630;18.822;2023-12-04T12:12:53;14.32;;;9.98;;
53927;SDS011;39837;47.630;18.822;2023-12-04T12:15:37;12.65;;;9.30;;
53927;SDS011;39837;47.630;18.822;2023-12-04T12:18:21;10.75;;;8.85;;
53927;SDS011;39837;47.630;18.822;2023-12-04T12:21:07;13.88;;;9.77;;
53927;SDS011;39837;47.630;18.822;2023-12-04T12:23:51;17.77;;;9.88;;
53927;SDS011;39837;47.630;18.822;2023-12-04T12:26:35;17.35;;;11.52;;
53927;SDS011;39837;47.630;18.822;2023-12-04T12:29:19;13.82;;;11.38;;
53927;SDS011;39837;47.630;18.822;2023-12-04T12:32:03;32.65;;;11.23;;
53927;SDS011;39837;47.630;18.822;2023-12-04T12:34:48;15.77;;;10.50;;
53927;SDS011;39837;47.630;18.822;2023-12-04T12:37:32;13.27;;;10.05;;
53927;SDS011;39837;47.630;18.822;2023-12-04T12:40:16;16.85;;;10.68;;
53927;SDS011;39837;47.630;18.822;2023-12-04T12:43:07;19.55;;;11.35;;
53927;SDS011;39837;47.630;18.822;2023-12-04T12:45:52;18.73;;;10.63;;
53927;SDS011;39837;47.630;18.822;2023-12-04T12:48:36;32.28;;;11.88;;
53927;SDS011;39837;47.630;18.822;2023-12-04T12:51:21;18.20;;;11.35;;
53927;SDS011;39837;47.630;18.822;2023-12-04T12:54:08;17.73;;;11.82;;
53927;SDS011;39837;47.630;18.822;2023-12-04T12:56:51;18.90;;;12.50;;
53927;SDS011;39837;47.630;18.822;2023-12-04T12:59:36;17.30;;;11.00;;
53927;SDS011;39837;47.630;18.822;2023-12-04T13:02:21;24.02;;;12.93;;
53927;SDS011;39837;47.630;18.822;2023-12-04T13:05:05;19.85;;;13.52;;
53927;SDS011;39837;47.630;18.822;2023-12-04T13:07:51;30.85;;;17.00;;
53927;SDS011;39837;47.630;18.822;2023-12-04T13:10:35;28.00;;;14.88;;
53927;SDS011;39837;47.630;18.822;2023-12-04T13:13:19;23.35;;;14.45;;
53927;SDS011;39837;47.630;18.822;2023-12-04T13:16:03;40.63;;;26.42;;
53927;SDS011;39837;47.630;18.822;2023-12-04T13:18:50;39.88;;;22.50;;
53927;SDS011;39837;47.630;18.822;2023-12-04T13:21:34;29.38;;;17.42;;
53927;SDS011;39837;47.630;18.822;2023-12-04T13:24:18;27.65;;;16.02;;
53927;SDS011;39837;47.630;18.822;2023-12-04T13:27:02;18.35;;;13.88;;
53927;SDS011;39837;47.630;18.822;2023-12-04T13:29:47;19.75;;;13.52;;
53927;SDS011;39837;47.630;18.822;2023-12-04T13:32:34;16.48;;;12.10;;
53927;SDS011;39837;47.630;18.822;2023-12-04T13:35:19;18.25;;;12.45;;
53927;SDS011;39837;47.630;18.822;2023-12-04T13:38:03;20.85;;;14.02;;
53927;SDS011;39837;47.630;18.822;2023-12-04T13:40:51;25.30;;;14.35;;
53927;SDS011;39837;47.630;18.822;2023-12-04T13:43:52;23.90;;;15.20;;
53927;SDS011;39837;47.630;18.822;2023-12-04T13:46:36;25.73;;;13.82;;
53927;SDS011;39837;47.630;18.822;2023-12-04T13:49:20;19.38;;;13.43;;
53927;SDS011;39837;47.630;18.822;2023-12-04T13:52:05;18.67;;;13.85;;
53927;SDS011;39837;47.630;18.822;2023-12-04T13:54:51;34.53;;;16.27;;
53927;SDS011;39837;47.630;18.822;2023-12-04T13:57:38;32.97;;;17.95;;
53927;SDS011;39837;47.630;18.822;2023-12-04T14:00:38;48.00;;;19.70;;
53927;SDS011;39837;47.630;18.822;2023-12-04T14:03:25;37.60;;;18.63;;
53927;SDS011;39837;47.630;18.822;2023-12-04T14:06:08;35.30;;;18.80;;
53927;SDS011;39837;47.630;18.822;2023-12-04T14:08:53;39.05;;;19.15;;
53927;SDS011;39837;47.630;18.822;2023-12-04T14:11:37;23.38;;;15.20;;
53927;SDS011;39837;47.630;18.822;2023-12-04T14:14:21;25.58;;;17.15;;
53927;SDS011;39837;47.630;18.822;2023-12-04T14:17:05;34.95;;;19.67;;
53927;SDS011;39837;47.630;18.822;2023-12-04T14:19:51;30.33;;;18.73;;
53927;SDS011;39837;47.630;18.822;2023-12-04T14:22:35;29.40;;;18.67;;
53927;SDS011;39837;47.630;18.822;2023-12-04T14:25:19;33.78;;;22.80;;
53927;SDS011;39837;47.630;18.822;2023-12-04T14:28:03;38.47;;;19.23;;
53927;SDS011;39837;47.630;18.822;2023-12-04T14:30:47;36.22;;;22.13;;
53927;SDS011;39837;47.630;18.822;2023-12-04T14:33:31;33.03;;;22.50;;
53927;SDS011;39837;47.630;18.822;2023-12-04T14:36:15;43.35;;;21.60;;
53927;SDS011;39837;47.630;18.822;2023-12-04T14:39:00;32.33;;;19.83;;
53927;SDS011;39837;47.630;18.822;2023-12-04T14:41:44;33.60;;;20.83;;
53927;SDS011;39837;47.630;18.822;2023-12-04T14:44:29;29.08;;;19.08;;
53927;SDS011;39837;47.630;18.822;2023-12-04T14:47:13;35.22;;;20.58;;
53927;SDS011;39837;47.630;18.822;2023-12-04T14:49:58;36.22;;;21.85;;
53927;SDS011;39837;47.630;18.822;2023-12-04T14:52:42;35.72;;;22.10;;
53927;SDS011;39837;47.630;18.822;2023-12-04T14:55:33;37.35;;;23.55;;
53927;SDS011;39837;47.630;18.822;2023-12-04T14:58:36;32.50;;;21.00;;
53927;SDS011;39837;47.630;18.822;2023-12-04T15:01:23;39.30;;;25.83;;
53927;SDS011;39837;47.630;18.822;2023-12-04T15:04:26;29.98;;;21.30;;
53927;SDS011;39837;47.630;18.822;2023-12-04T15:07:29;28.13;;;18.38;;
53927;SDS011;39837;47.630;18.822;2023-12-04T15:10:13;34.40;;;20.63;;
53927;SDS011;39837;47.630;18.822;2023-12-04T15:13:00;46.40;;;24.85;;
53927;SDS011;39837;47.630;18.822;2023-12-04T15:15:44;146.70;;;103.65;;
53927;SDS011;39837;47.630;18.822;2023-12-04T15:19:03;66.43;;;43.00;;
53927;SDS011;39837;47.630;18.822;2023-12-04T15:22:06;50.53;;;24.35;;
53927;SDS011;39837;47.630;18.822;2023-12-04T15:24:50;42.55;;;20.48;;
53927;SDS011;39837;47.630;18.822;2023-12-04T15:27:34;43.08;;;18.70;;
53927;SDS011;39837;47.630;18.822;2023-12-04T15:30:19;31.00;;;19.00;;
53927;SDS011;39837;47.630;18.822;2023-12-04T15:33:03;29.52;;;17.80;;
53927;SDS011;39837;47.630;18.822;2023-12-04T15:35:47;29.45;;;16.40;;
53927;SDS011;39837;47.630;18.822;2023-12-04T15:38:31;29.63;;;16.35;;
53927;SDS011;39837;47.630;18.822;2023-12-04T15:41:15;22.27;;;15.30;;
53927;SDS011;39837;47.630;18.822;2023-12-04T15:44:02;24.75;;;16.52;;
53927;SDS011;39837;47.630;18.822;2023-12-04T15:46:46;22.58;;;17.52;;
53927;SDS011;39837;47.630;18.822;2023-12-04T15:49:30;31.30;;;17.75;;
53927;SDS011;39837;47.630;18.822;2023-12-04T15:52:14;28.08;;;16.92;;
53927;SDS011;39837;47.630;18.822;2023-12-04T15:55:02;44.85;;;21.92;;